createdAt,value
2022-11-01T00:01:15.499Z,99.8
2022-11-01T00:02:31.783Z,99.6
2022-11-01T00:03:48.075Z,99.5
2022-11-01T00:05:04.366Z,99.2
2022-11-01T00:06:20.665Z,99.1
2022-11-01T00:07:36.982Z,99.2
2022-11-01T00:08:53.258Z,99.6
2022-11-01T00:10:09.540Z,99.4
2022-11-01T00:11:25.840Z,99.3
2022-11-01T00:12:42.157Z,99.3
2022-11-01T00:13:58.422Z,99.1
2022-11-01T00:15:13.731Z,98.8
2022-11-01T00:16:30.036Z,98.8
2022-11-01T00:17:46.331Z,98.7
2022-11-01T00:19:02.624Z,98.6
2022-11-01T00:20:18.924Z,98.5
2022-11-01T00:21:35.211Z,98.3
2022-11-01T00:22:51.499Z,98.4
2022-11-01T00:24:07.791Z,98.4
2022-11-01T00:25:24.072Z,98.2
2022-11-01T00:26:40.381Z,97.8
2022-11-01T00:27:56.663Z,97.4
2022-11-01T00:29:12.962Z,97.5
2022-11-01T00:30:29.255Z,97.8
2022-11-01T00:31:44.554Z,98.4
2022-11-01T00:33:00.848Z,98.3
2022-11-01T00:34:17.137Z,98
2022-11-01T00:35:33.430Z,97.7
2022-11-01T00:36:49.734Z,98.2
2022-11-01T00:38:06.037Z,98
2022-11-01T00:39:22.311Z,97.7
2022-11-01T00:40:38.608Z,97.5
2022-11-01T00:41:54.909Z,97.3
2022-11-01T00:43:11.189Z,97.1
2022-11-01T00:44:27.485Z,97.3
2022-11-01T00:45:43.776Z,97.3
2022-11-01T00:47:00.071Z,97.3
2022-11-01T00:48:15.401Z,97.4
2022-11-01T00:49:31.682Z,98.1
2022-11-01T00:50:47.970Z,97.9
2022-11-01T00:52:04.255Z,97.7
2022-11-01T00:53:20.549Z,97.8
2022-11-01T00:54:36.847Z,97.7
2022-11-01T00:55:53.152Z,97.5
2022-11-01T00:57:09.436Z,97.8
2022-11-01T00:58:25.724Z,98.1
2022-11-01T00:59:42.021Z,97.9
2022-11-01T01:00:58.323Z,97.9
2022-11-01T01:02:14.608Z,98
2022-11-01T01:03:30.905Z,98
2022-11-01T01:04:46.218Z,97.9
2022-11-01T01:06:02.499Z,97.9
2022-11-01T01:07:18.791Z,98.1
2022-11-01T01:08:35.099Z,98.3
2022-11-01T01:09:51.385Z,98.2
2022-11-01T01:11:07.685Z,97.7
2022-11-01T01:12:23.965Z,97.5
2022-11-01T01:13:40.281Z,99.2
2022-11-01T01:14:56.562Z,100
2022-11-01T01:16:12.871Z,100
2022-11-01T01:17:29.151Z,100
2022-11-01T01:18:45.454Z,100
2022-11-01T01:20:01.735Z,100
2022-11-01T01:21:17.042Z,100
2022-11-01T01:22:33.340Z,100
2022-11-01T01:23:49.620Z,100
2022-11-01T01:25:05.911Z,100
2022-11-01T01:26:22.236Z,100
2022-11-01T01:27:38.500Z,100
2022-11-01T01:28:54.812Z,100
2022-11-01T01:30:11.092Z,100
2022-11-01T01:31:27.388Z,100
2022-11-01T01:32:43.681Z,100
2022-11-01T01:33:59.964Z,99.7
2022-11-01T01:35:16.274Z,100
2022-11-01T01:36:32.549Z,100
2022-11-01T01:37:47.859Z,100
2022-11-01T01:39:04.155Z,100
2022-11-01T01:40:20.454Z,100
2022-11-01T01:41:36.738Z,100
2022-11-01T01:42:53.037Z,100
2022-11-01T01:44:09.332Z,100
2022-11-01T01:45:25.617Z,100
2022-11-01T01:46:41.929Z,100
2022-11-01T01:47:58.203Z,100
2022-11-01T01:49:14.502Z,100
2022-11-01T01:50:30.802Z,100
2022-11-01T01:51:47.094Z,100
2022-11-01T01:53:03.386Z,100
2022-11-01T01:54:18.716Z,100
2022-11-01T01:55:34.992Z,100
2022-11-01T01:56:51.282Z,100
2022-11-01T01:58:07.583Z,100
2022-11-01T01:59:23.864Z,100
2022-11-01T02:00:40.157Z,100
2022-11-01T02:01:55.479Z,100
2022-11-01T02:03:11.779Z,100
2022-11-01T02:04:28.070Z,100
2022-11-01T02:05:44.365Z,100
2022-11-01T02:07:00.653Z,100
2022-11-01T02:08:16.940Z,100
2022-11-01T02:09:33.244Z,100
2022-11-01T02:10:49.533Z,100
2022-11-01T02:12:05.832Z,100
2022-11-01T02:13:22.112Z,100
2022-11-01T02:14:38.406Z,100
2022-11-01T02:15:54.709Z,100
2022-11-01T02:17:11.015Z,100
2022-11-01T02:18:26.305Z,100
2022-11-01T02:19:42.616Z,100
2022-11-01T02:20:58.888Z,100
2022-11-01T02:22:15.193Z,100
2022-11-01T02:23:31.482Z,100
2022-11-01T02:24:47.780Z,100
2022-11-01T02:26:04.068Z,100
2022-11-01T02:27:20.358Z,100
2022-11-01T02:28:36.654Z,100
2022-11-01T02:29:52.974Z,100
2022-11-01T02:31:09.247Z,100
2022-11-01T02:32:25.551Z,100
2022-11-01T02:33:41.827Z,100
2022-11-01T02:34:57.152Z,100
2022-11-01T02:36:13.444Z,100
2022-11-01T02:37:29.720Z,100
2022-11-01T02:38:46.022Z,100
2022-11-01T02:40:02.313Z,100
2022-11-01T02:41:18.611Z,100
2022-11-01T02:42:34.916Z,100
2022-11-01T02:43:51.193Z,100
2022-11-01T02:45:07.512Z,100
2022-11-01T02:46:23.773Z,100
2022-11-01T02:47:40.069Z,100
2022-11-01T02:48:56.373Z,100
2022-11-01T02:50:12.667Z,100
2022-11-01T02:51:27.969Z,100
2022-11-01T02:52:44.260Z,100
2022-11-01T02:54:00.548Z,100
2022-11-01T02:55:16.867Z,100
2022-11-01T02:56:33.134Z,100
2022-11-01T02:57:49.436Z,100
2022-11-01T02:59:05.731Z,100
2022-11-01T03:00:22.014Z,100
2022-11-01T03:01:38.320Z,100
2022-11-01T03:02:54.603Z,100
2022-11-01T03:04:10.894Z,100
2022-11-01T03:05:27.208Z,100
2022-11-01T03:06:43.461Z,100
2022-11-01T03:07:58.789Z,100
2022-11-01T03:09:15.079Z,100
2022-11-01T03:10:31.406Z,100
2022-11-01T03:11:47.663Z,100
2022-11-01T03:13:03.988Z,100
2022-11-01T03:14:20.242Z,100
2022-11-01T03:15:36.549Z,100
2022-11-01T03:16:52.826Z,100
2022-11-01T03:18:09.125Z,100
2022-11-01T03:19:25.410Z,100
2022-11-01T03:20:41.708Z,100
2022-11-01T03:21:58.009Z,100
2022-11-01T03:23:14.342Z,99.9
2022-11-01T03:24:29.606Z,99.6
2022-11-01T03:25:45.933Z,99.5
2022-11-01T03:27:02.190Z,99.5
2022-11-01T03:28:18.494Z,99.4
2022-11-01T03:29:34.787Z,99.1
2022-11-01T03:30:51.073Z,98.9
2022-11-01T03:32:07.363Z,98.8
2022-11-01T03:33:23.709Z,98.6
2022-11-01T03:34:39.960Z,98.3
2022-11-01T03:35:56.284Z,98.1
2022-11-01T03:37:12.543Z,98.1
2022-11-01T03:38:28.843Z,97.8
2022-11-01T03:39:45.125Z,97.5
2022-11-01T03:41:00.443Z,97.3
2022-11-01T03:42:16.732Z,97.2
2022-11-01T03:43:33.065Z,97.1
2022-11-01T03:44:49.319Z,96.9
2022-11-01T03:46:05.616Z,96.6
2022-11-01T03:47:21.902Z,96.3
2022-11-01T03:48:38.195Z,95.9
2022-11-01T03:49:54.505Z,95.8
2022-11-01T03:51:10.780Z,95.7
2022-11-01T03:52:27.083Z,95.5
2022-11-01T03:53:43.375Z,94.4
2022-11-01T03:54:59.000Z,94
2022-11-01T03:56:15.997Z,93.9
2022-11-01T03:57:31.273Z,94
2022-11-01T03:58:47.602Z,94
2022-11-01T04:00:03.857Z,93.9
2022-11-01T04:01:20.142Z,94.1
2022-11-01T04:02:36.450Z,94.2
2022-11-01T04:03:52.747Z,94.3
2022-11-01T04:05:09.036Z,94.4
2022-11-01T04:06:25.329Z,94.5
2022-11-01T04:07:41.619Z,94.2
2022-11-01T04:08:57.920Z,94.1
2022-11-01T04:10:14.208Z,94.1
2022-11-01T04:11:30.536Z,93.9
2022-11-01T04:12:46.786Z,93.9
2022-11-01T04:14:02.092Z,94
2022-11-01T04:15:18.401Z,94.1
2022-11-01T04:16:34.687Z,94
2022-11-01T04:17:50.982Z,94.1
2022-11-01T04:19:07.286Z,94.1
2022-11-01T04:20:23.561Z,94.2
2022-11-01T04:21:39.892Z,94.1
2022-11-01T04:22:56.148Z,94.1
2022-11-01T04:24:12.481Z,93.9
2022-11-01T04:25:28.746Z,93.9
2022-11-01T04:26:45.033Z,93.8
2022-11-01T04:28:01.332Z,93.7
2022-11-01T04:29:17.612Z,93.8
2022-11-01T04:30:32.931Z,93.9
2022-11-01T04:31:49.230Z,94
2022-11-01T04:33:05.517Z,94
2022-11-01T04:34:21.816Z,94.3
2022-11-01T04:35:38.110Z,94.5
2022-11-01T04:36:54.440Z,94.5
2022-11-01T04:38:10.683Z,94.4
2022-11-01T04:39:27.020Z,94.4
2022-11-01T04:40:43.270Z,94.5
2022-11-01T04:41:59.606Z,94.5
2022-11-01T04:43:15.858Z,94.2
2022-11-01T04:44:32.162Z,94.3
2022-11-01T04:45:48.440Z,94.3
2022-11-01T04:47:03.792Z,94.8
2022-11-01T04:48:20.042Z,95.1
2022-11-01T04:49:36.374Z,95.3
2022-11-01T04:50:52.643Z,95.7
2022-11-01T04:52:08.921Z,95.5
2022-11-01T04:53:25.218Z,95.5
2022-11-01T04:54:41.516Z,95.8
2022-11-01T04:55:57.817Z,96.2
2022-11-01T04:57:14.093Z,96.3
2022-11-01T04:58:30.406Z,96.4
2022-11-01T04:59:46.729Z,96.1
2022-11-01T05:01:02.991Z,95.8
2022-11-01T05:02:19.267Z,95.5
2022-11-01T05:03:34.596Z,95.2
2022-11-01T05:04:50.879Z,95.2
2022-11-01T05:06:07.177Z,95.2
2022-11-01T05:07:23.506Z,95
2022-11-01T05:08:39.755Z,95.1
2022-11-01T05:09:56.061Z,95.1
2022-11-01T05:11:12.347Z,95.1
2022-11-01T05:12:28.629Z,94.9
2022-11-01T05:13:44.938Z,94.9
2022-11-01T05:15:01.229Z,94.7
2022-11-01T05:16:17.509Z,94.3
2022-11-01T05:17:33.809Z,94.3
2022-11-01T05:18:50.103Z,96.5
2022-11-01T05:20:05.412Z,95.3
2022-11-01T05:21:21.712Z,94.2
2022-11-01T05:22:38.001Z,94.3
2022-11-01T05:23:54.285Z,94.2
2022-11-01T05:25:10.583Z,94.5
2022-11-01T05:26:26.000Z,94.7
2022-11-01T05:27:43.202Z,94.5
2022-11-01T05:28:59.473Z,94.5
2022-11-01T05:30:15.765Z,94.8
2022-11-01T05:31:32.045Z,94.7
2022-11-01T05:32:48.339Z,94.3
2022-11-01T05:34:04.645Z,94.5
2022-11-01T05:35:20.938Z,94.5
2022-11-01T05:36:36.243Z,94.2
2022-11-01T05:37:52.475Z,93.8
2022-11-01T05:39:08.771Z,93.7
2022-11-01T05:40:25.015Z,93.5
2022-11-01T05:41:41.250Z,93.1
2022-11-01T05:42:57.547Z,93
2022-11-01T05:44:13.844Z,92.9
2022-11-01T05:45:30.174Z,93
2022-11-01T05:46:46.387Z,92.6
2022-11-01T05:48:02.634Z,92.7
2022-11-01T05:49:18.855Z,92.9
2022-11-01T05:50:35.156Z,92.8
2022-11-01T05:51:51.345Z,92.8
2022-11-01T05:53:06.609Z,92.8
2022-11-01T05:54:22.841Z,92.5
2022-11-01T05:55:39.078Z,92.5
2022-11-01T05:56:55.330Z,92.4
2022-11-01T05:58:11.556Z,92.2
2022-11-01T05:59:27.812Z,92.1
2022-11-01T06:00:44.032Z,92
2022-11-01T06:02:00.273Z,92.1
2022-11-01T06:03:16.554Z,92
2022-11-01T06:04:32.756Z,92
2022-11-01T06:05:49.040Z,92.1
2022-11-01T06:07:05.242Z,92.1
2022-11-01T06:08:21.511Z,91.9
2022-11-01T06:09:36.721Z,91.6
2022-11-01T06:10:52.974Z,91.9
2022-11-01T06:12:09.000Z,91.8
2022-11-01T06:13:25.455Z,91
2022-11-01T06:14:41.679Z,91.1
2022-11-01T06:15:57.957Z,91.5
2022-11-01T06:17:13.173Z,91.3
2022-11-01T06:18:29.426Z,91.3
2022-11-01T06:19:45.663Z,91.9
2022-11-01T06:21:01.935Z,91.8
2022-11-01T06:22:18.144Z,91.7
2022-11-01T06:23:34.425Z,91.7
2022-11-01T06:24:50.624Z,91.6
2022-11-01T06:26:06.847Z,91.4
2022-11-01T06:27:23.093Z,91.3
2022-11-01T06:28:39.331Z,91.3
2022-11-01T06:29:55.577Z,90.9
2022-11-01T06:31:11.849Z,90.9
2022-11-01T06:32:28.049Z,91
2022-11-01T06:33:43.293Z,90.9
2022-11-01T06:34:59.533Z,90.7
2022-11-01T06:36:15.772Z,90.7
2022-11-01T06:37:32.017Z,90.5
2022-11-01T06:38:48.252Z,90.5
2022-11-01T06:40:04.501Z,90.7
2022-11-01T06:41:20.767Z,90.8
2022-11-01T06:42:36.967Z,90.6
2022-11-01T06:43:53.246Z,90.5
2022-11-01T06:45:09.445Z,90.7
2022-11-01T06:46:25.686Z,90.9
2022-11-01T06:47:41.939Z,90.6
2022-11-01T06:48:58.170Z,90.8
2022-11-01T06:50:13.427Z,90.7
2022-11-01T06:51:29.658Z,90.1
2022-11-01T06:52:45.893Z,89.8
2022-11-01T06:54:02.179Z,89.6
2022-11-01T06:55:18.373Z,89.5
2022-11-01T06:56:34.660Z,89.3
2022-11-01T06:57:50.848Z,88.9
2022-11-01T06:59:07.137Z,88.5
2022-11-01T07:00:23.346Z,88.1
2022-11-01T07:01:39.565Z,87.8
2022-11-01T07:02:55.812Z,88
2022-11-01T07:04:12.063Z,88
2022-11-01T07:05:28.300Z,88.1
2022-11-01T07:06:43.586Z,88.1
2022-11-01T07:07:59.787Z,87.9
2022-11-01T07:09:16.019Z,87.8
2022-11-01T07:10:32.260Z,87.8
2022-11-01T07:11:48.534Z,87.7
2022-11-01T07:13:04.742Z,87.9
2022-11-01T07:14:20.987Z,87.5
2022-11-01T07:15:37.216Z,87.5
2022-11-01T07:16:53.463Z,87.6
2022-11-01T07:18:09.687Z,87.4
2022-11-01T07:19:25.931Z,87.1
2022-11-01T07:20:42.182Z,87.3
2022-11-01T07:21:58.417Z,86.9
2022-11-01T07:23:13.658Z,87.1
2022-11-01T07:24:29.941Z,87.4
2022-11-01T07:25:46.146Z,87.2
2022-11-01T07:28:18.623Z,87.4
2022-11-01T07:29:34.865Z,87.4
2022-11-01T07:30:51.091Z,87.4
2022-11-01T07:32:07.378Z,87.4
2022-11-01T07:33:23.580Z,87.4
2022-11-01T07:34:39.861Z,87.4
2022-11-01T07:37:12.337Z,87
2022-11-01T07:38:28.523Z,86.4
2022-11-01T07:39:43.782Z,86.4
2022-11-01T07:41:00.030Z,86
2022-11-01T07:42:16.261Z,86.4
2022-11-01T07:43:32.504Z,85.9
2022-11-01T07:44:48.781Z,86
2022-11-01T07:46:04.980Z,85.9
2022-11-01T07:47:21.228Z,85.9
2022-11-01T07:48:37.457Z,85.8
2022-11-01T07:49:53.735Z,86.1
2022-11-01T07:51:09.938Z,85.5
2022-11-01T07:52:26.207Z,85.2
2022-11-01T07:53:42.421Z,85.3
2022-11-01T07:54:58.651Z,85.6
2022-11-01T07:56:13.910Z,85.7
2022-11-01T07:57:30.141Z,85.3
2022-11-01T07:58:46.382Z,85.7
2022-11-01T08:00:02.656Z,86.3
2022-11-01T08:01:18.867Z,86.7
2022-11-01T08:02:35.096Z,85.9
2022-11-01T08:03:51.334Z,86.3
2022-11-01T08:05:07.571Z,86.1
2022-11-01T08:06:23.807Z,86.3
2022-11-01T08:07:40.065Z,86
2022-11-01T08:08:56.291Z,86.5
2022-11-01T08:10:12.530Z,85.8
2022-11-01T08:11:28.769Z,86.3
2022-11-01T08:12:44.062Z,85.4
2022-11-01T08:14:00.265Z,85.6
2022-11-01T08:15:16.505Z,85.3
2022-11-01T08:16:32.743Z,85.3
2022-11-01T08:17:48.979Z,85.5
2022-11-01T08:19:05.211Z,85.7
2022-11-01T08:20:21.465Z,85.2
2022-11-01T08:21:37.703Z,85.3
2022-11-01T08:22:53.934Z,85
2022-11-01T08:24:10.163Z,85
2022-11-01T08:25:26.419Z,84.8
2022-11-01T08:26:42.658Z,83.9
2022-11-01T08:27:58.923Z,84.3
2022-11-01T08:29:14.149Z,83.9
2022-11-01T08:30:30.391Z,84.5
2022-11-01T08:31:46.614Z,84.6
2022-11-01T08:33:02.853Z,84.6
2022-11-01T08:34:19.102Z,84.7
2022-11-01T08:35:35.383Z,84.4
2022-11-01T08:36:51.568Z,84.7
2022-11-01T08:38:07.856Z,84.7
2022-11-01T08:39:24.055Z,84.9
2022-11-01T08:40:40.286Z,85
2022-11-01T08:41:56.540Z,85.6
2022-11-01T08:43:12.803Z,85.3
2022-11-01T08:44:29.006Z,85.5
2022-11-01T08:45:44.263Z,85
2022-11-01T08:47:00.501Z,85.5
2022-11-01T08:48:16.778Z,85.5
2022-11-01T08:49:32.979Z,85.7
2022-11-01T08:50:49.211Z,86
2022-11-01T08:52:05.451Z,86.2
2022-11-01T08:53:21.738Z,86.1
2022-11-01T08:54:37.941Z,85.8
2022-11-01T08:55:54.220Z,86
2022-11-01T08:57:10.413Z,86
2022-11-01T08:58:26.646Z,85.7
2022-11-01T08:59:42.897Z,84.7
2022-11-01T09:00:59.116Z,84.6
2022-11-01T09:02:14.385Z,84.8
2022-11-01T09:03:30.612Z,84.8
2022-11-01T09:04:46.850Z,84.2
2022-11-01T09:06:03.087Z,83.7
2022-11-01T09:07:19.339Z,84.2
2022-11-01T09:08:35.583Z,83.8
2022-11-01T09:09:51.807Z,83.3
2022-11-01T09:11:08.089Z,83.3
2022-11-01T09:12:24.292Z,82.9
2022-11-01T09:13:40.521Z,82.5
2022-11-01T09:14:56.767Z,82.4
2022-11-01T09:16:13.044Z,82.1
2022-11-01T09:17:29.254Z,81.3
2022-11-01T09:18:44.504Z,81.2
2022-11-01T09:20:00.730Z,80.5
2022-11-01T09:21:17.018Z,80.2
2022-11-01T09:22:33.207Z,79.9
2022-11-01T09:23:49.491Z,79.1
2022-11-01T09:25:05.694Z,78.8
2022-11-01T09:26:21.967Z,78.9
2022-11-01T09:27:38.182Z,77.9
2022-11-01T09:28:54.446Z,78.1
2022-11-01T09:30:10.648Z,77.9
2022-11-01T09:31:26.928Z,77.7
2022-11-01T09:32:43.162Z,78
2022-11-01T09:33:59.357Z,78.4
2022-11-01T09:35:14.622Z,78.7
2022-11-01T09:36:30.862Z,78.6
2022-11-01T09:37:47.096Z,78.7
2022-11-01T09:39:03.341Z,78.6
2022-11-01T09:40:19.587Z,78.6
2022-11-01T09:41:35.866Z,78.2
2022-11-01T09:42:52.047Z,78.6
2022-11-01T09:44:08.289Z,77.5
2022-11-01T09:45:24.524Z,77.7
2022-11-01T09:46:40.762Z,77.9
2022-11-01T09:47:57.010Z,77.8
2022-11-01T09:49:13.243Z,77.9
2022-11-01T09:50:29.498Z,77.9
2022-11-01T09:51:44.734Z,77.1
2022-11-01T09:53:00.987Z,77
2022-11-01T09:54:17.217Z,76.8
2022-11-01T09:55:33.467Z,76.6
2022-11-01T09:56:49.743Z,76.3
2022-11-01T09:58:05.943Z,76.8
2022-11-01T09:59:22.178Z,76.2
2022-11-01T10:00:38.422Z,77.2
2022-11-01T10:01:54.652Z,78.5
2022-11-01T10:03:10.885Z,79.3
2022-11-01T10:04:27.180Z,80.1
2022-11-01T10:05:43.367Z,80.4
2022-11-01T10:06:59.615Z,81.2
2022-11-01T10:08:14.858Z,82.3
2022-11-01T10:09:31.105Z,82.1
2022-11-01T10:10:47.340Z,82.6
2022-11-01T10:12:03.619Z,83.5
2022-11-01T10:13:19.816Z,83.6
2022-11-01T10:14:36.064Z,83.9
2022-11-01T10:15:52.294Z,83.8
2022-11-01T10:17:08.539Z,83.5
2022-11-01T10:18:24.827Z,83.7
2022-11-01T10:19:41.028Z,84.2
2022-11-01T10:20:57.257Z,84.1
2022-11-01T10:22:13.493Z,84
2022-11-01T10:23:29.744Z,83.2
2022-11-01T10:24:45.028Z,83.4
2022-11-01T10:26:01.228Z,83
2022-11-01T10:27:17.469Z,82.3
2022-11-01T10:28:33.703Z,81.7
2022-11-01T10:29:49.995Z,80.9
2022-11-01T10:31:06.225Z,80.5
2022-11-01T10:32:21.456Z,80.6
2022-11-01T10:33:37.678Z,79.6
2022-11-01T10:34:53.921Z,79
2022-11-01T10:36:10.169Z,78.7
2022-11-01T10:37:26.449Z,78.1
2022-11-01T10:38:42.648Z,79
2022-11-01T10:39:58.923Z,79.1
2022-11-01T10:41:15.119Z,79.6
2022-11-01T10:42:31.411Z,80.5
2022-11-01T10:43:47.594Z,81.2
2022-11-01T10:45:03.887Z,81.1
2022-11-01T10:46:20.072Z,81.6
2022-11-01T10:47:36.355Z,81.3
2022-11-01T10:48:52.549Z,80.8
2022-11-01T10:50:07.812Z,80.8
2022-11-01T10:51:24.046Z,81.4
2022-11-01T10:52:40.335Z,81.1
2022-11-01T10:53:56.535Z,81.1
2022-11-01T10:55:12.805Z,81
2022-11-01T10:56:29.008Z,81.2
2022-11-01T10:57:45.256Z,80.4
2022-11-01T10:59:01.497Z,79.6
2022-11-01T11:00:17.746Z,79.3
2022-11-01T11:01:33.964Z,79.2
2022-11-01T11:02:50.224Z,79.5
2022-11-01T11:04:06.442Z,79.5
2022-11-01T11:05:22.695Z,79.3
2022-11-01T11:06:37.939Z,79.8
2022-11-01T11:07:54.179Z,79.5
2022-11-01T11:09:10.419Z,79.3
2022-11-01T11:10:26.652Z,79.1
2022-11-01T11:11:42.901Z,79.3
2022-11-01T11:12:59.129Z,79.7
2022-11-01T11:14:15.374Z,80
2022-11-01T11:15:31.616Z,79.5
2022-11-01T11:16:47.856Z,80.1
2022-11-01T11:18:04.101Z,79.2
2022-11-01T11:19:20.348Z,79.4
2022-11-01T11:20:36.583Z,79.2
2022-11-01T11:21:52.823Z,79.4
2022-11-01T11:23:08.090Z,79.5
2022-11-01T11:24:24.305Z,79.6
2022-11-01T11:25:40.559Z,79.3
2022-11-01T11:26:56.793Z,79.2
2022-11-01T11:28:13.047Z,79.5
2022-11-01T11:29:29.254Z,79.1
2022-11-01T11:30:45.517Z,78.4
2022-11-01T11:32:01.748Z,78.5
2022-11-01T11:33:17.972Z,78.2
2022-11-01T11:34:34.214Z,78.8
2022-11-01T11:35:50.450Z,79.2
2022-11-01T11:37:06.693Z,79.8
2022-11-01T11:38:22.933Z,79.6
2022-11-01T11:39:38.215Z,79.7
2022-11-01T11:40:54.422Z,79.6
2022-11-01T11:42:10.683Z,79.5
2022-11-01T11:43:26.915Z,79.6
2022-11-01T11:44:43.152Z,80
2022-11-01T11:45:59.379Z,80
2022-11-01T11:47:15.628Z,79.8
2022-11-01T11:48:31.883Z,79.9
2022-11-01T11:49:48.106Z,80.2
2022-11-01T11:51:04.368Z,79.8
2022-11-01T11:52:20.576Z,79.2
2022-11-01T11:53:36.817Z,79.2
2022-11-01T11:54:53.058Z,78.8
2022-11-01T11:56:08.320Z,79
2022-11-01T11:57:24.565Z,79
2022-11-01T11:58:40.789Z,79.2
2022-11-01T11:59:57.040Z,78.6
2022-11-01T12:01:13.302Z,78.2
2022-11-01T12:02:29.515Z,78.7
2022-11-01T12:03:45.781Z,78.8
2022-11-01T12:05:02.018Z,78.2
2022-11-01T12:06:18.234Z,77.7
2022-11-01T12:07:34.478Z,77
2022-11-01T12:08:50.720Z,77.9
2022-11-01T12:10:06.954Z,77.5
2022-11-01T12:11:23.190Z,77.5
2022-11-01T12:12:38.466Z,77.3
2022-11-01T12:13:54.681Z,77.2
2022-11-01T12:15:10.957Z,77
2022-11-01T12:16:27.174Z,77.3
2022-11-01T12:17:43.426Z,77.4
2022-11-01T12:18:59.648Z,77.3
2022-11-01T12:20:15.885Z,77.6
2022-11-01T12:21:32.115Z,77.7
2022-11-01T12:22:48.365Z,78
2022-11-01T12:24:04.609Z,77.8
2022-11-01T12:25:20.843Z,78.2
2022-11-01T12:26:37.078Z,78.1
2022-11-01T12:27:53.334Z,77.9
2022-11-01T12:29:08.578Z,76.8
2022-11-01T12:30:24.808Z,77.2
2022-11-01T12:31:41.077Z,77.5
2022-11-01T12:38:02.241Z,78.1
2022-11-01T12:39:17.505Z,78.5
2022-11-01T12:40:32.771Z,78.4
2022-11-01T12:41:48.037Z,78.2
2022-11-01T12:43:03.272Z,78.6
2022-11-01T12:44:18.565Z,78.8
2022-11-01T12:45:33.802Z,79.1
2022-11-01T12:46:49.051Z,79.1
2022-11-01T12:48:04.322Z,79.5
2022-11-01T12:49:20.555Z,79.5
2022-11-01T12:50:36.801Z,79.6
2022-11-01T12:51:53.057Z,79.8
2022-11-01T12:53:09.271Z,79.6
2022-11-01T12:54:25.524Z,79.5
2022-11-01T12:55:41.751Z,79.7
2022-11-01T12:56:57.990Z,79.8
2022-11-01T12:58:14.239Z,79.5
2022-11-01T12:59:30.459Z,79.5
2022-11-01T13:00:45.738Z,79.5
2022-11-01T13:02:00.985Z,79.2
2022-11-01T13:03:17.217Z,79.1
2022-11-01T13:04:33.452Z,79.5
2022-11-01T13:05:49.703Z,79.2
2022-11-01T13:07:05.931Z,79.3
2022-11-01T13:08:22.180Z,79.8
2022-11-01T13:09:38.448Z,79
2022-11-01T13:10:54.666Z,78.4
2022-11-01T13:12:10.905Z,78
2022-11-01T13:13:27.137Z,77.6
2022-11-01T13:14:43.368Z,77.3
2022-11-01T13:15:59.620Z,76.8
2022-11-01T13:21:04.579Z,74.9
2022-11-01T13:22:19.833Z,74.5
2022-11-01T13:23:35.084Z,74.2
2022-11-01T13:24:51.352Z,73.7
2022-11-01T13:26:07.564Z,72.9
2022-11-01T13:27:23.832Z,73
2022-11-01T13:28:40.039Z,72.8
2022-11-01T13:29:56.277Z,73.6
2022-11-01T13:31:12.517Z,73.1
2022-11-01T13:32:28.757Z,73.3
2022-11-01T13:33:44.995Z,74.1
2022-11-01T13:35:01.232Z,75
2022-11-01T13:36:16.531Z,75.2
2022-11-01T13:37:31.754Z,74.2
2022-11-01T13:38:47.989Z,74.1
2022-11-01T13:40:04.254Z,73.6
2022-11-01T13:41:20.470Z,74.1
2022-11-01T13:42:36.720Z,73.2
2022-11-01T13:43:52.953Z,73.2
2022-11-01T13:45:09.192Z,73
2022-11-01T13:46:25.435Z,72.4
2022-11-01T13:47:41.681Z,72
2022-11-01T13:48:57.918Z,71.9
2022-11-01T13:50:14.152Z,72.7
2022-11-01T13:51:30.397Z,72.9
2022-11-01T13:52:46.653Z,72.9
2022-11-01T13:54:01.884Z,73.2
2022-11-01T13:55:18.149Z,73.3
2022-11-01T13:56:34.372Z,73.4
2022-11-01T13:57:50.626Z,73.7
2022-11-01T13:59:06.842Z,74.1
2022-11-01T14:00:23.101Z,74.6
2022-11-01T14:01:39.319Z,74.8
2022-11-01T14:02:54.585Z,75.5
2022-11-01T14:04:09.862Z,75.5
2022-11-01T14:05:26.075Z,75.9
2022-11-01T14:06:41.363Z,76
2022-11-01T14:07:56.620Z,76.3
2022-11-01T14:09:12.840Z,76.4
2022-11-01T14:10:29.060Z,76.2
2022-11-01T14:11:45.317Z,76.6
2022-11-01T14:13:01.547Z,76.7
2022-11-01T14:14:17.810Z,76.7
2022-11-01T14:15:34.022Z,76.8
2022-11-01T14:16:50.276Z,77.8
2022-11-01T14:18:06.500Z,76.4
2022-11-01T14:19:22.769Z,76.6
2022-11-01T14:20:39.002Z,76.9
2022-11-01T14:21:55.227Z,76.7
2022-11-01T14:23:11.460Z,76.6
2022-11-01T14:24:26.724Z,76.6
2022-11-01T14:25:42.950Z,76.8
2022-11-01T14:26:59.215Z,77
2022-11-01T14:28:15.432Z,76.7
2022-11-01T14:29:31.676Z,76.5
2022-11-01T14:30:47.937Z,76.8
2022-11-01T14:32:04.152Z,76.6
2022-11-01T14:33:19.445Z,76.8
2022-11-01T14:34:34.692Z,76.5
2022-11-01T14:35:50.914Z,76.3
2022-11-01T14:37:07.144Z,75.9
2022-11-01T14:38:22.411Z,75.6
2022-11-01T14:39:37.663Z,75.5
2022-11-01T14:40:53.899Z,75.6
2022-11-01T14:42:10.136Z,75.7
2022-11-01T14:43:26.401Z,76
2022-11-01T14:44:42.625Z,76.4
2022-11-01T14:45:58.857Z,76.7
2022-11-01T14:47:14.120Z,77
2022-11-01T14:48:30.351Z,77.1
2022-11-01T14:49:46.631Z,77.3
2022-11-01T14:51:02.839Z,76.9
2022-11-01T14:52:19.078Z,76.8
2022-11-01T14:53:35.313Z,77.3
2022-11-01T14:54:51.562Z,77.4
2022-11-01T14:56:07.790Z,77.5
2022-11-01T14:57:24.031Z,77.5
2022-11-01T14:58:40.275Z,77.6
2022-11-01T14:59:56.525Z,77.5
2022-11-01T15:01:12.756Z,77.2
2022-11-01T15:02:28.991Z,77.8
2022-11-01T15:03:44.285Z,77.9
2022-11-01T15:04:59.535Z,77.9
2022-11-01T15:06:14.764Z,78.3
2022-11-01T15:07:30.035Z,78.6
2022-11-01T15:08:45.295Z,78.9
2022-11-01T15:10:01.523Z,79.3
2022-11-01T15:11:17.793Z,79.5
2022-11-01T15:12:34.003Z,79.9
2022-11-01T15:13:50.239Z,80.1
2022-11-01T15:15:06.489Z,80.4
2022-11-01T15:16:22.728Z,80.7
2022-11-01T15:17:37.986Z,80.9
2022-11-01T15:18:53.237Z,80.9
2022-11-01T15:20:09.493Z,80.7
2022-11-01T15:21:25.747Z,80.9
2022-11-01T15:22:41.973Z,80.8
2022-11-01T15:23:58.228Z,81.1
2022-11-01T15:25:14.448Z,81.4
2022-11-01T15:26:30.710Z,81.6
2022-11-01T15:27:46.925Z,81.8
2022-11-01T15:29:03.169Z,82
2022-11-01T15:30:19.401Z,82.1
2022-11-01T15:31:35.647Z,82.3
2022-11-01T15:32:51.878Z,82.5
2022-11-01T15:34:08.139Z,82.6
2022-11-01T15:35:23.380Z,82.7
2022-11-01T15:36:39.642Z,83
2022-11-01T15:37:55.854Z,83.3
2022-11-01T15:39:12.124Z,83.5
2022-11-01T15:40:28.330Z,83.5
2022-11-01T15:41:44.582Z,83.8
2022-11-01T15:43:00.809Z,84.4
2022-11-01T15:44:16.076Z,84.3
2022-11-01T15:45:31.333Z,84.2
2022-11-01T15:46:46.583Z,84.6
2022-11-01T15:48:01.843Z,84.5
2022-11-01T15:49:17.099Z,84.7
2022-11-01T15:50:32.353Z,84.5
2022-11-01T15:51:47.629Z,85
2022-11-01T15:53:02.873Z,85.4
2022-11-01T15:54:19.107Z,85.4
2022-11-01T15:55:35.364Z,85.4
2022-11-01T15:56:51.598Z,85.3
2022-11-01T15:58:07.837Z,85.6
2022-11-01T15:59:24.099Z,85.6
2022-11-01T16:00:40.314Z,85.7
2022-11-01T16:01:56.556Z,85.8
2022-11-01T16:03:12.784Z,85.9
2022-11-01T16:04:29.054Z,85.6
2022-11-01T16:05:45.262Z,85.6
2022-11-01T16:07:01.499Z,85.9
2022-11-01T16:08:17.752Z,86.2
2022-11-01T16:09:33.006Z,86.7
2022-11-01T16:10:49.253Z,86.5
2022-11-01T16:12:05.503Z,87.4
2022-11-01T16:13:21.720Z,88.5
2022-11-01T16:14:37.982Z,88.6
2022-11-01T16:15:54.210Z,88.7
2022-11-01T16:17:10.462Z,89.8
2022-11-01T16:18:25.767Z,89.5
2022-11-01T16:19:41.091Z,88.9
2022-11-01T16:20:57.356Z,88.5
2022-11-01T16:22:13.591Z,88.2
2022-11-01T16:23:29.896Z,87.4
2022-11-01T16:24:46.182Z,86.9
2022-11-01T16:26:02.469Z,86.7
2022-11-01T16:27:18.766Z,86.6
2022-11-01T16:28:35.067Z,86.5
2022-11-01T16:29:51.382Z,86.7
2022-11-01T16:31:07.652Z,86.6
2022-11-01T16:32:23.969Z,86.7
2022-11-01T16:33:40.235Z,86.3
2022-11-01T16:34:56.518Z,86.6
2022-11-01T16:36:11.834Z,86.4
2022-11-01T16:37:28.150Z,86.8
2022-11-01T16:38:44.432Z,87.3
2022-11-01T16:40:00.739Z,87.4
2022-11-01T16:41:17.012Z,87.4
2022-11-01T16:42:33.302Z,88
2022-11-01T16:43:49.597Z,88
2022-11-01T16:45:04.000Z,88.3
2022-11-01T16:46:20.220Z,88.5
2022-11-01T16:47:35.561Z,88.7
2022-11-01T16:48:50.840Z,88.2
